createdAt,value
2019-05-02T00:00:29.921Z,6.27
2019-05-02T00:02:59.883Z,4.33
2019-05-02T00:05:32.129Z,7.37
2019-05-02T00:07:59.680Z,8.70
2019-05-02T00:10:28.557Z,5.63
2019-05-02T00:12:57.277Z,3.93
2019-05-02T00:15:26.001Z,5.53
2019-05-02T00:17:56.848Z,7.63
2019-05-02T00:20:25.836Z,3.60
2019-05-02T00:22:54.257Z,4.97
2019-05-02T00:25:22.601Z,4.47
2019-05-02T00:27:50.905Z,3.73
2019-05-02T00:30:19.618Z,5.40
2019-05-02T00:32:47.853Z,3.37
2019-05-02T00:35:16.069Z,4.78
2019-05-02T00:37:44.719Z,5.23
2019-05-02T00:40:13.214Z,7.37
2019-05-02T00:42:42.078Z,4.50
2019-05-02T00:45:10.197Z,6.03
2019-05-02T00:47:48.278Z,4.40
2019-05-02T00:50:17.667Z,4.00
2019-05-02T00:52:46.051Z,7.47
2019-05-02T00:55:14.269Z,5.43
2019-05-02T00:57:42.533Z,7.33
2019-05-02T01:00:13.316Z,6.10
2019-05-02T01:02:47.645Z,6.53
2019-05-02T01:05:16.161Z,3.47
2019-05-02T01:07:45.276Z,4.53
2019-05-02T01:10:17.369Z,6.33
2019-05-02T01:12:46.093Z,5.37
2019-05-02T01:15:14.994Z,3.97
2019-05-02T01:17:43.653Z,4.63
2019-05-02T01:20:12.135Z,6.40
2019-05-02T01:22:40.687Z,3.90
2019-05-02T01:25:15.355Z,6.40
2019-05-02T01:28:02.103Z,4.73
2019-05-02T01:31:01.816Z,4.80
2019-05-02T01:33:46.787Z,6.63
2019-05-02T01:36:21.765Z,6.73
2019-05-02T01:38:50.491Z,10.43
2019-05-02T01:41:19.137Z,6.30
2019-05-02T01:43:47.589Z,7.60
2019-05-02T01:46:17.089Z,5.93
2019-05-02T01:48:46.139Z,6.90
2019-05-02T01:51:15.945Z,7.00
2019-05-02T01:53:44.880Z,6.43
2019-05-02T01:56:13.162Z,5.40
2019-05-02T01:58:41.585Z,8.10
2019-05-02T02:01:10.261Z,8.03
2019-05-02T02:03:40.430Z,5.53
2019-05-02T02:06:10.170Z,7.33
2019-05-02T02:08:41.412Z,12.20
2019-05-02T02:11:10.777Z,6.30
2019-05-02T02:13:38.989Z,6.97
2019-05-02T02:16:07.922Z,8.97
2019-05-02T02:18:41.509Z,8.37
2019-05-02T02:21:31.782Z,9.10
2019-05-02T02:24:04.801Z,10.67
2019-05-02T02:26:33.735Z,8.43
2019-05-02T02:29:03.078Z,11.17
2019-05-02T02:31:32.560Z,6.43
2019-05-02T02:34:02.787Z,5.60
2019-05-02T02:36:34.207Z,9.57
2019-05-02T02:39:07.014Z,7.50
2019-05-02T02:41:33.728Z,7.73
2019-05-02T02:44:20.535Z,9.23
2019-05-02T02:46:48.846Z,12.23
2019-05-02T02:49:21.666Z,8.67
2019-05-02T02:51:47.475Z,11.20
2019-05-02T02:54:15.838Z,11.20
2019-05-02T02:56:44.374Z,7.62
2019-05-02T02:59:19.650Z,10.20
2019-05-02T03:01:43.245Z,10.90
2019-05-02T03:04:12.280Z,10.00
2019-05-02T03:06:44.855Z,11.73
2019-05-02T03:09:11.419Z,10.87
2019-05-02T03:11:49.555Z,10.00
2019-05-02T03:14:27.519Z,10.30
2019-05-02T03:16:55.764Z,9.80
2019-05-02T03:19:24.516Z,9.53
2019-05-02T03:21:54.351Z,11.20
2019-05-02T03:24:25.020Z,9.37
2019-05-02T03:26:55.184Z,8.63
2019-05-02T03:29:25.103Z,12.70
2019-05-02T03:32:12.446Z,11.10
2019-05-02T03:34:44.997Z,9.37
2019-05-02T03:37:03.175Z,10.33
2019-05-02T03:39:27.988Z,10.63
2019-05-02T03:42:02.942Z,15.70
2019-05-02T03:44:26.842Z,11.63
2019-05-02T03:47:02.296Z,17.27
2019-05-02T03:49:25.962Z,16.80
2019-05-02T03:51:55.906Z,16.10
2019-05-02T03:54:24.630Z,14.63
2019-05-02T03:56:53.468Z,11.50
2019-05-02T03:59:22.502Z,13.43
2019-05-02T04:01:51.093Z,13.70
2019-05-02T04:04:20.596Z,11.83
2019-05-02T04:06:54.957Z,12.03
2019-05-02T04:09:32.147Z,15.93
2019-05-02T04:12:02.313Z,12.40
2019-05-02T04:14:37.973Z,14.40
2019-05-02T04:17:01.912Z,13.70
2019-05-02T04:19:35.000Z,13.47
2019-05-02T04:22:08.380Z,13.77
2019-05-02T04:24:34.013Z,16.53
2019-05-02T04:27:02.788Z,15.63
2019-05-02T04:29:33.078Z,14.57
2019-05-02T04:32:04.518Z,13.97
2019-05-02T04:34:32.770Z,11.90
2019-05-02T04:37:04.075Z,14.93
2019-05-02T04:39:31.510Z,11.50
2019-05-02T04:42:05.532Z,12.93
2019-05-02T04:44:40.911Z,10.13
2019-05-02T04:47:11.152Z,10.73
2019-05-02T04:49:35.798Z,10.60
2019-05-02T04:52:07.002Z,11.90
2019-05-02T04:54:32.486Z,9.77
2019-05-02T04:57:02.287Z,10.40
2019-05-02T04:59:33.310Z,8.73
2019-05-02T05:02:01.978Z,10.53
2019-05-02T05:04:33.347Z,12.03
2019-05-02T05:07:01.101Z,10.97
2019-05-02T05:09:30.175Z,13.47
2019-05-02T05:12:02.392Z,11.13
2019-05-02T05:14:32.876Z,12.47
2019-05-02T05:16:59.604Z,12.63
2019-05-02T05:19:32.657Z,14.10
2019-05-02T05:22:04.350Z,14.10
2019-05-02T05:24:42.197Z,10.77
2019-05-02T05:27:13.099Z,16.73
2019-05-02T05:29:39.437Z,13.10
2019-05-02T05:32:10.139Z,12.07
2019-05-02T05:34:38.814Z,10.57
2019-05-02T05:37:09.306Z,11.53
2019-05-02T05:39:38.213Z,11.87
2019-05-02T05:42:10.325Z,12.03
2019-05-02T05:44:39.974Z,12.70
2019-05-02T05:47:12.237Z,10.70
2019-05-02T05:49:38.194Z,12.97
2019-05-02T05:52:08.050Z,11.73
2019-05-02T05:54:40.465Z,14.07
2019-05-02T05:57:07.772Z,13.00
2019-05-02T05:59:38.020Z,10.07
2019-05-02T06:02:12.667Z,9.07
2019-05-02T06:04:38.699Z,12.53
2019-05-02T06:07:07.753Z,11.07
2019-05-02T06:09:36.349Z,13.63
2019-05-02T06:12:05.080Z,14.67
2019-05-02T06:14:34.585Z,11.60
2019-05-02T06:17:03.059Z,12.70
2019-05-02T06:19:31.261Z,11.03
2019-05-02T06:21:59.702Z,13.77
2019-05-02T06:24:28.114Z,14.38
2019-05-02T06:26:56.533Z,11.43
2019-05-02T06:29:26.130Z,11.97
2019-05-02T06:31:56.711Z,16.43
2019-05-02T06:34:25.573Z,16.47
2019-05-02T06:36:53.970Z,12.33
2019-05-02T06:39:27.056Z,15.33
2019-05-02T06:41:57.629Z,11.70
2019-05-02T06:44:25.389Z,12.70
2019-05-02T06:46:54.196Z,15.23
2019-05-02T06:49:24.903Z,12.57
2019-05-02T06:51:56.178Z,11.17
2019-05-02T06:54:24.816Z,12.57
2019-05-02T06:56:53.282Z,15.47
2019-05-02T06:59:22.142Z,19.30
2019-05-02T07:01:52.270Z,13.73
2019-05-02T07:04:22.872Z,16.10
2019-05-02T07:06:58.680Z,16.80
2019-05-02T07:09:20.986Z,12.47
2019-05-02T07:11:57.123Z,10.27
2019-05-02T07:14:23.691Z,12.03
2019-05-02T07:16:56.477Z,8.20
2019-05-02T07:19:30.810Z,11.60
2019-05-02T07:22:03.975Z,9.10
2019-05-02T07:24:30.563Z,7.67
2019-05-02T07:27:02.508Z,7.30
2019-05-02T07:29:31.564Z,4.80
2019-05-02T07:32:00.059Z,5.73
2019-05-02T07:34:28.626Z,7.53
2019-05-02T07:36:57.117Z,8.07
2019-05-02T07:39:25.687Z,6.70
2019-05-02T07:41:54.475Z,8.07
2019-05-02T07:44:27.259Z,7.33
2019-05-02T07:46:56.919Z,7.10
2019-05-02T07:49:26.734Z,11.80
2019-05-02T07:51:57.649Z,9.77
2019-05-02T07:54:24.910Z,6.43
2019-05-02T07:56:54.709Z,4.07
2019-05-02T07:59:23.629Z,2.03
2019-05-02T08:01:53.353Z,4.83
2019-05-02T08:04:21.971Z,5.57
2019-05-02T08:06:50.194Z,3.53
2019-05-02T08:09:18.485Z,8.73
2019-05-02T08:11:46.818Z,4.27
2019-05-02T08:14:15.374Z,5.00
2019-05-02T08:16:43.981Z,4.17
2019-05-02T08:19:12.549Z,6.80
2019-05-02T08:21:40.725Z,5.63
2019-05-02T08:24:09.274Z,6.13
2019-05-02T08:26:58.281Z,7.23
2019-05-02T08:29:28.961Z,5.40
2019-05-02T08:31:57.481Z,8.03
2019-05-02T08:34:30.482Z,5.03
2019-05-02T08:37:03.212Z,6.77
2019-05-02T08:39:33.287Z,6.50
2019-05-02T08:41:59.855Z,9.83
2019-05-02T08:44:28.178Z,8.13
2019-05-02T08:46:56.460Z,4.77
2019-05-02T08:49:24.581Z,8.10
2019-05-02T08:51:53.313Z,5.57
2019-05-02T08:54:22.101Z,8.23
2019-05-02T08:56:53.483Z,6.70
2019-05-02T08:59:24.518Z,6.80
2019-05-02T09:01:51.413Z,9.10
2019-05-02T09:04:24.177Z,7.93
2019-05-02T09:06:53.115Z,10.30
2019-05-02T09:09:22.850Z,12.73
2019-05-02T09:12:03.300Z,6.90
2019-05-02T09:14:21.698Z,7.97
2019-05-02T09:16:52.248Z,8.57
2019-05-02T09:19:24.413Z,6.70
2019-05-02T09:21:52.526Z,8.07
2019-05-02T09:24:23.939Z,5.47
2019-05-02T09:26:52.586Z,8.07
2019-05-02T09:29:22.304Z,6.03
2019-05-02T09:31:52.527Z,5.47
2019-05-02T09:34:24.986Z,6.00
2019-05-02T09:36:52.923Z,5.83
2019-05-02T09:39:22.720Z,5.70
2019-05-02T09:41:52.631Z,6.10
2019-05-02T09:44:22.416Z,11.63
2019-05-02T09:46:55.209Z,5.80
2019-05-02T09:49:22.070Z,9.73
2019-05-02T09:51:59.035Z,5.13
2019-05-02T09:54:23.207Z,6.10
2019-05-02T09:56:52.360Z,8.73
2019-05-02T09:59:30.060Z,8.90
2019-05-02T10:01:55.058Z,6.87
2019-05-02T10:04:24.118Z,7.53
2019-05-02T10:06:52.726Z,8.37
2019-05-02T10:09:24.362Z,8.27
2019-05-02T10:11:52.554Z,8.20
2019-05-02T10:14:22.670Z,9.00
2019-05-02T10:16:52.915Z,7.67
2019-05-02T10:19:25.714Z,7.50
2019-05-02T10:21:56.184Z,6.63
2019-05-02T10:24:22.391Z,8.43
2019-05-02T10:26:57.071Z,7.17
2019-05-02T10:29:28.140Z,8.93
2019-05-02T10:31:52.634Z,9.50
2019-05-02T10:34:22.668Z,7.50
2019-05-02T10:36:58.302Z,6.37
2019-05-02T10:39:23.422Z,4.20
2019-05-02T10:41:52.669Z,4.60
2019-05-02T10:44:22.565Z,3.73
2019-05-02T10:46:54.994Z,6.33
2019-05-02T10:49:29.054Z,5.97
2019-05-02T10:51:58.294Z,4.40
2019-05-02T10:54:27.868Z,4.63
2019-05-02T10:56:57.141Z,8.17
2019-05-02T10:59:25.427Z,4.93
2019-05-02T11:02:32.717Z,6.27
2019-05-02T11:05:05.930Z,5.30
2019-05-02T11:07:34.253Z,4.83
2019-05-02T11:10:06.697Z,7.93
2019-05-02T11:12:46.638Z,10.25
2019-05-02T11:15:41.866Z,4.07
2019-05-02T11:18:12.567Z,3.43
2019-05-02T11:20:42.102Z,5.67
2019-05-02T11:23:12.546Z,4.97
2019-05-02T11:25:42.148Z,5.93
2019-05-02T11:28:12.406Z,2.20
2019-05-02T11:30:42.536Z,5.67
2019-05-02T11:33:13.344Z,3.53
2019-05-02T11:35:48.786Z,3.60
2019-05-02T11:38:33.749Z,4.37
2019-05-02T11:40:42.611Z,5.47
2019-05-02T11:43:11.580Z,2.40
2019-05-02T11:45:42.389Z,3.03
2019-05-02T11:48:11.968Z,4.57
2019-05-02T11:50:42.252Z,5.27
2019-05-02T11:53:23.256Z,3.93
2019-05-02T11:55:43.462Z,3.57
2019-05-02T11:58:12.564Z,3.77
2019-05-02T12:00:45.446Z,5.97
2019-05-02T12:03:35.118Z,3.87
2019-05-02T12:05:59.358Z,4.23
2019-05-02T12:08:27.536Z,4.47
2019-05-02T12:10:55.906Z,3.40
2019-05-02T12:13:24.231Z,7.67
2019-05-02T12:15:52.866Z,8.33
2019-05-02T12:18:23.215Z,5.93
2019-05-02T12:20:52.055Z,5.30
2019-05-02T12:23:22.662Z,5.93
2019-05-02T12:25:52.013Z,5.77
2019-05-02T12:28:20.242Z,4.70
2019-05-02T12:30:49.042Z,6.57
2019-05-02T12:33:18.197Z,3.17
2019-05-02T12:35:47.654Z,3.27
2019-05-02T12:38:16.071Z,3.30
2019-05-02T12:40:44.363Z,5.63
2019-05-02T12:43:12.563Z,3.97
2019-05-02T12:45:42.144Z,5.00
2019-05-02T12:48:12.958Z,5.00
2019-05-02T12:50:41.946Z,4.70
2019-05-02T12:53:12.438Z,13.97
2019-05-02T12:55:42.115Z,4.20
2019-05-02T12:58:12.571Z,4.75
2019-05-02T13:00:42.866Z,2.92
2019-05-02T13:03:33.396Z,8.28
2019-05-02T13:06:03.001Z,7.08
2019-05-02T13:08:34.141Z,4.12
2019-05-02T13:11:14.305Z,7.55
2019-05-02T13:13:43.705Z,4.28
2019-05-02T13:16:12.338Z,5.45
2019-05-02T13:18:42.412Z,3.70
2019-05-02T13:21:16.933Z,6.70
2019-05-02T13:24:02.011Z,4.05
2019-05-02T13:26:32.043Z,6.05
2019-05-02T13:29:02.373Z,4.65
2019-05-02T13:31:37.471Z,7.97
2019-05-02T13:34:14.996Z,5.75
2019-05-02T13:36:46.207Z,3.50
2019-05-02T13:39:38.309Z,4.20
2019-05-02T13:42:08.877Z,6.40
2019-05-02T13:44:43.295Z,4.40
2019-05-02T13:47:12.545Z,6.58
2019-05-02T13:49:53.230Z,6.40
2019-05-02T13:52:12.424Z,5.22
2019-05-02T13:54:42.622Z,3.62
2019-05-02T13:57:12.133Z,3.45
2019-05-02T13:59:43.708Z,3.98
2019-05-02T14:02:31.862Z,5.85
2019-05-02T14:05:02.356Z,5.47
2019-05-02T14:07:32.648Z,4.33
2019-05-02T14:10:04.958Z,4.08
2019-05-02T14:12:53.830Z,6.30
2019-05-02T14:15:24.961Z,5.00
2019-05-02T14:17:53.248Z,4.33
2019-05-02T14:20:22.415Z,3.98
2019-05-02T14:22:52.729Z,4.55
2019-05-02T14:25:22.580Z,6.55
2019-05-02T14:27:52.261Z,4.37
2019-05-02T14:30:35.676Z,6.33
2019-05-02T14:32:52.521Z,7.45
2019-05-02T14:35:28.111Z,5.08
2019-05-02T14:38:16.526Z,5.00
2019-05-02T14:40:54.998Z,5.60
2019-05-02T14:43:46.205Z,5.35
2019-05-02T14:46:12.597Z,4.07
2019-05-02T14:48:45.102Z,7.23
2019-05-02T14:51:16.510Z,6.73
2019-05-02T14:53:43.072Z,5.50
2019-05-02T14:56:22.938Z,7.57
2019-05-02T14:58:52.849Z,5.40
2019-05-02T15:01:22.612Z,6.60
2019-05-02T15:03:52.942Z,3.83
2019-05-02T15:06:23.673Z,6.03
2019-05-02T15:08:52.585Z,3.10
2019-05-02T15:11:30.321Z,4.47
2019-05-02T15:13:53.224Z,4.57
2019-05-02T15:16:26.175Z,4.40
2019-05-02T15:18:53.261Z,8.50
2019-05-02T15:21:22.820Z,5.93
2019-05-02T15:23:54.440Z,3.17
2019-05-02T15:26:26.463Z,8.73
2019-05-02T15:28:52.355Z,7.73
2019-05-02T15:31:28.493Z,4.63
2019-05-02T15:34:05.056Z,4.57
2019-05-02T15:36:37.050Z,3.90
2019-05-02T15:41:39.874Z,2.30
2019-05-02T15:44:07.232Z,3.93
2019-05-02T15:46:35.633Z,4.17
2019-05-02T15:49:05.682Z,6.03
2019-05-02T15:51:38.025Z,3.27
2019-05-02T15:54:08.755Z,5.13
2019-05-02T15:56:52.544Z,3.10
2019-05-02T15:59:37.624Z,5.53
2019-05-02T16:02:08.597Z,4.20
2019-05-02T16:04:38.957Z,6.60
2019-05-02T16:07:08.530Z,5.63
2019-05-02T16:09:37.250Z,4.87
2019-05-02T16:12:06.118Z,4.40
2019-05-02T16:14:36.240Z,5.87
2019-05-02T16:17:04.572Z,8.67
2019-05-02T16:19:36.313Z,5.23
2019-05-02T16:22:29.958Z,4.80
2019-05-02T16:24:58.245Z,4.60
2019-05-02T16:28:02.099Z,8.20
2019-05-02T16:30:28.930Z,6.10
2019-05-02T16:32:58.987Z,4.57
2019-05-02T16:35:28.690Z,4.40
2019-05-02T16:37:56.809Z,7.70
2019-05-02T16:40:29.598Z,5.70
2019-05-02T16:42:56.183Z,5.67
2019-05-02T16:45:24.936Z,4.37
2019-05-02T16:47:58.609Z,3.80
2019-05-02T16:50:27.592Z,5.00
2019-05-02T16:52:53.587Z,4.33
2019-05-02T16:55:26.331Z,5.93
2019-05-02T16:57:56.628Z,5.60
2019-05-02T17:00:25.191Z,3.03
2019-05-02T17:02:53.873Z,3.43
2019-05-02T17:05:22.369Z,4.53
2019-05-02T17:08:10.853Z,5.97
2019-05-02T17:10:47.134Z,4.10
2019-05-02T17:13:13.002Z,4.87
2019-05-02T17:15:42.904Z,6.10
2019-05-02T17:18:14.643Z,5.00
2019-05-02T17:20:41.652Z,5.57
2019-05-02T17:23:10.399Z,6.73
2019-05-02T17:25:38.654Z,5.53
2019-05-02T17:28:10.495Z,7.00
2019-05-02T17:30:39.104Z,6.17
2019-05-02T17:33:14.248Z,5.73
2019-05-02T17:35:43.382Z,3.50
2019-05-02T17:38:08.281Z,6.00
2019-05-02T17:40:36.586Z,5.37
2019-05-02T17:43:06.849Z,6.23
2019-05-02T17:45:38.497Z,6.57
2019-05-02T17:48:08.401Z,7.17
2019-05-02T17:51:02.215Z,6.10
2019-05-02T17:53:35.339Z,6.37
2019-05-02T17:56:02.020Z,6.50
2019-05-02T17:58:31.753Z,7.43
2019-05-02T18:01:02.587Z,9.43
2019-05-02T18:03:35.200Z,8.03
2019-05-02T18:06:07.621Z,7.23
2019-05-02T18:08:33.901Z,3.80
2019-05-02T18:11:03.079Z,5.17
2019-05-02T18:13:33.993Z,8.80
2019-05-02T18:16:02.767Z,7.45
2019-05-02T18:18:31.931Z,7.90
2019-05-02T18:21:02.082Z,8.53
2019-05-02T18:23:32.280Z,8.60
2019-05-02T18:26:04.441Z,9.37
2019-05-02T18:28:31.541Z,8.73
2019-05-02T18:31:02.603Z,5.30
2019-05-02T18:33:30.489Z,10.87
2019-05-02T18:35:59.029Z,14.50
2019-05-02T18:38:27.972Z,9.33
2019-05-02T18:41:00.402Z,7.40
2019-05-02T18:43:27.117Z,5.37
2019-05-02T18:45:58.273Z,10.17
2019-05-02T18:48:25.945Z,6.87
2019-05-02T18:50:54.619Z,6.33
2019-05-02T18:53:27.127Z,6.97
2019-05-02T18:55:56.807Z,4.73
2019-05-02T18:58:24.341Z,9.80
2019-05-02T19:00:53.249Z,9.63
2019-05-02T19:03:22.963Z,9.70
2019-05-02T19:05:57.071Z,10.53
2019-05-02T19:08:29.124Z,6.80
2019-05-02T19:11:04.652Z,7.20
2019-05-02T19:13:23.559Z,7.37
2019-05-02T19:15:53.416Z,8.77
2019-05-02T19:18:22.297Z,6.07
2019-05-02T19:21:00.162Z,8.83
2019-05-02T19:23:29.057Z,9.73
2019-05-02T19:26:03.727Z,10.07
2019-05-02T19:28:48.523Z,5.50
2019-05-02T19:31:18.492Z,9.03
2019-05-02T19:33:52.742Z,8.73
2019-05-02T19:36:27.712Z,7.43
2019-05-02T19:38:57.398Z,6.53
2019-05-02T19:41:25.181Z,9.37
2019-05-02T19:43:54.002Z,6.67
2019-05-02T19:46:24.527Z,8.53
2019-05-02T19:48:55.399Z,8.13
2019-05-02T19:51:27.938Z,6.43
2019-05-02T19:53:59.599Z,9.87
2019-05-02T19:56:27.421Z,8.50
2019-05-02T19:58:56.170Z,10.10
2019-05-02T20:01:26.556Z,10.27
2019-05-02T20:03:56.850Z,7.00
2019-05-02T20:06:26.724Z,7.13
2019-05-02T20:08:59.165Z,11.93
2019-05-02T20:11:28.163Z,11.87
2019-05-02T20:14:00.468Z,6.80
2019-05-02T20:16:44.126Z,9.63
2019-05-02T20:19:09.553Z,9.77
2019-05-02T20:22:02.968Z,7.43
2019-05-02T20:24:58.522Z,6.33
2019-05-02T20:27:24.130Z,6.50
2019-05-02T20:29:53.141Z,8.77
2019-05-02T20:32:22.260Z,6.13
2019-05-02T20:34:50.652Z,8.40
2019-05-02T20:37:19.189Z,10.63
2019-05-02T20:39:48.037Z,12.83
2019-05-02T20:42:16.368Z,10.40
2019-05-02T20:44:44.588Z,7.00
2019-05-02T20:47:16.112Z,7.30
2019-05-02T20:49:44.639Z,7.10
2019-05-02T20:52:13.728Z,10.73
2019-05-02T20:54:42.815Z,10.63
2019-05-02T20:57:11.983Z,8.00
2019-05-02T20:59:41.750Z,9.70
2019-05-02T21:02:12.193Z,9.57
2019-05-02T21:04:42.528Z,12.60
2019-05-02T21:07:33.121Z,13.17
2019-05-02T21:10:32.957Z,11.70
2019-05-02T21:13:02.086Z,8.57
2019-05-02T21:15:32.234Z,10.27
2019-05-02T21:18:02.291Z,10.37
2019-05-02T21:20:32.486Z,13.60
2019-05-02T21:23:01.988Z,9.57
2019-05-02T21:25:32.423Z,9.53
2019-05-02T21:28:02.708Z,12.57
2019-05-02T21:30:32.271Z,9.00
2019-05-02T21:33:02.633Z,9.40
2019-05-02T21:35:31.929Z,7.97
2019-05-02T21:38:00.397Z,8.87
2019-05-02T21:40:29.156Z,12.73
2019-05-02T21:42:57.863Z,11.33
2019-05-02T21:45:25.968Z,11.03
2019-05-02T21:47:54.579Z,8.23
2019-05-02T21:50:40.488Z,7.00
2019-05-02T21:53:37.082Z,6.83
2019-05-02T21:56:13.253Z,10.33
2019-05-02T21:59:02.810Z,9.67
2019-05-02T22:01:32.921Z,12.97
2019-05-02T22:04:02.270Z,9.23
2019-05-02T22:06:32.330Z,10.10
2019-05-02T22:09:02.927Z,10.70
2019-05-02T22:11:33.716Z,11.93
2019-05-02T22:14:02.478Z,9.73
2019-05-02T22:16:32.693Z,13.87
2019-05-02T22:19:02.905Z,9.80
2019-05-02T22:21:34.750Z,9.13
2019-05-02T22:24:08.950Z,8.20
2019-05-02T22:26:32.711Z,11.20
2019-05-02T22:29:01.918Z,11.67
2019-05-02T22:31:32.186Z,12.97
2019-05-02T22:34:02.203Z,10.53
2019-05-02T22:36:32.637Z,10.00
2019-05-02T22:39:34.942Z,10.67
2019-05-02T22:42:04.679Z,12.00
2019-05-02T22:44:33.792Z,12.43
2019-05-02T22:47:02.459Z,12.30
2019-05-02T22:49:31.848Z,14.63
2019-05-02T22:52:00.521Z,7.87
2019-05-02T22:54:33.352Z,9.97
2019-05-02T22:56:59.322Z,9.47
2019-05-02T22:59:28.195Z,10.40
2019-05-02T23:01:56.873Z,9.83
2019-05-02T23:04:26.356Z,9.97
2019-05-02T23:06:54.517Z,10.00
2019-05-02T23:09:23.030Z,12.57
2019-05-02T23:11:52.023Z,12.00
2019-05-02T23:14:22.143Z,8.37
2019-05-02T23:16:52.784Z,10.90
2019-05-02T23:19:23.032Z,10.90
2019-05-02T23:21:52.812Z,13.77
2019-05-02T23:24:39.110Z,17.60
2019-05-02T23:27:24.770Z,15.13
2019-05-02T23:29:53.501Z,13.13
2019-05-02T23:32:23.767Z,15.77
2019-05-02T23:34:53.510Z,14.93
2019-05-02T23:37:22.280Z,14.43
2019-05-02T23:39:52.171Z,11.30
2019-05-02T23:42:21.860Z,13.27
2019-05-02T23:44:51.882Z,15.70
2019-05-02T23:47:22.309Z,11.97
2019-05-02T23:49:52.045Z,14.33
2019-05-02T23:52:22.312Z,11.87
2019-05-02T23:54:52.467Z,10.83
2019-05-02T23:57:22.998Z,11.90
2019-05-02T23:59:51.792Z,13.27
